Flight Track Log - Related Links

Times and Time Zones

All times are in EDT time to prevent confusion due to time zone crossing. See the EJA922 flight status page for this flight to view local times or setup timezone preferences in your user account.

Time Position Orientation Groundspeed Altitude Reporting Facility
EDT Latitude Longitude Course Direction KTS km/h feet Rate Location/Type
Fri 10:13:49 46.4000 -74.8500 169° South 230 426 7.000  Level Montreal Center
Fri 10:14:49 46.3333 -74.8667 190° South 270 501 10.100 3.000 Climbing Montreal Center
Fri 10:15:49 46.2500 -74.8500 172° South 320 592 13.000 2.700 Climbing Montreal Center
Fri 10:16:49 46.1500 -74.8000 161° South 360 666 15.500 2.750 Climbing Montreal Center
Fri 10:17:49 46.0500 -74.7833 173° South 380 703 18.500 2.750 Climbing Montreal Center
Fri 10:18:49 45.9500 -74.7333 161° South 390 723 21.000 2.600 Climbing Montreal Center
Fri 10:19:00 45.7984 -74.6069 169° South  Level FlightAware Approximate
Fri 10:19:49 45.8500 -74.7167 173° South 410 760 23.700  Level Montreal Center
Fri 10:20:49 45.7167 -74.6667 165° South 420 777 26.300 2.550 Climbing Montreal Center
Fri 10:21:49 45.6167 -74.6500 173° South 430 797 28.800 2.500 Climbing Montreal Center
Fri 10:22:49 45.4833 -74.6000 165° South 440 814 31.300 2.350 Climbing Montreal Center
Fri 10:23:49 45.3667 -74.5667 169° South 440 814 33.500 1.350 Climbing Montreal Center
Fri 10:24:49 45.2500 -74.5167 163° South 460 851 34.000 250 Climbing Montreal Center
Fri 10:25:49 45.1000 -74.4667 167° South 500 925 34.000  Level Montreal Center
Fri 10:26:49 44.9667 -74.4500 175° South 510 945 34.000  Level Montreal Center
Fri 10:27:49 44.8333 -74.4167 170° South 520 962 34.000  Level Montreal Center
Fri 10:28:24 44.7678 -74.3903 164° South 516 956 34.000  Level Boston Center
Fri 10:29:24 44.6289 -74.3478 168° South 516 956 34.000  Level Boston Center
Fri 10:30:25 44.4919 -74.3056 168° South 516 956 34.000  Level Boston Center
Fri 10:31:25 44.3553 -74.2633 168° South 511 946 34.000  Level Boston Center
Fri 10:32:23 44.2203 -74.2244 168° South 506 937 34.000 -202 Level Boston Center
Fri 10:33:24 44.0833 -74.1858 169° South 506 937 33.600 -934 Descending Boston Center
Fri 10:34:25 43.9528 -74.1472 168° South 500 925 32.100 -1.513 Descending Boston Center
Fri 10:35:23 43.8178 -74.1061 168° South 500 925 30.600 -1.525 Descending Boston Center
Fri 10:36:23 43.6831 -74.0681 168° South 500 925 29.100 -1.426 Descending Boston Center
Fri 10:37:25 43.5503 -74.0300 168° South 500 925 27.700 -1.450 Descending Boston Center
Fri 10:38:23 43.4153 -73.9922 169° South 500 925 26.200 -1.613 Descending Boston Center
Fri 10:39:24 43.2803 -73.9572 169° South 500 925 24.500 -1.240 Descending Boston Center
Fri 10:40:24 43.1475 -73.9169 168° South 500 925 23.700 -1.160 Descending Boston Center
Fri 10:41:23 43.0144 -73.8825 169° South 500 925 22.200 -1.500 Descending Boston Center
Fri 10:42:24 42.8711 -73.8397 168° South 495 917 20.700 -1.475 Descending Boston Center
Fri 10:43:25 42.7422 -73.8139 172° South 485 898 19.200 -1.488 Descending Boston Center
Fri 10:44:25 42.6208 -73.8594 195° South 457 847 17.700 -1.400 Descending Boston Center
Fri 10:45:25 42.5203 -73.9050 198° South 437 810 16.400 -864 Descending Boston Center
Fri 10:46:23 42.3944 -73.9639 199° South 437 810 16.000 -202 Descending Boston Center
Fri 10:47:24 42.2958 -74.0064 198° South 426 789 16.000 33 Level Boston Center
Fri 10:49:26 42.0692 -74.1069 198° South 426 789 16.100  Climbing Boston Center
Fri 10:50:23 41.9456 -74.1594 198° South 426 789 16.000 -359 Descending Boston Center
Fri 10:51:23 41.8447 -74.2069 199° South 431 798 15.400 -1.438 Descending Boston Center
Fri 10:52:24 41.7231 -74.2564 197° South 419 776 13.100 -2.016 Descending Boston Center
Fri 10:53:25 41.6369 -74.2928 198° South 391 724 11.300 -1.866 Descending Boston Center
Fri 10:54:23 41.5447 -74.3344 199° South 345 639 9.400 -1.765 Descending Boston Center
Fri 10:55:24 41.4692 -74.3656 197° South 304 563 7.800 -742 Descending Boston Center
Fri 10:57:29 41.3000 -74.4333 197° South 300 555 7.100 -227 Descending New York TRACON
Fri 10:58:29 41.2333 -74.4667 201° Southwest 298 552 7.100  Level New York TRACON
Fri 10:59:29 41.1500 -74.5000 197° South 299 554 7.100  Level New York TRACON
Fri 11:00:29 41.0667 -74.5333 197° South 301 557 7.100 -381 Level New York TRACON
Fri 11:01:35 40.9833 -74.5500 189° South 295 546 6.300 -476 Descending New York TRACON
Fri 11:02:35 40.9000 -74.5667 189° South 297 550 6.100 -105 Descending New York TRACON
Fri 11:03:29 40.8167 -74.5667 180° South 295 546 6.100 -200 Level New York TRACON
Fri 11:04:35 40.7333 -74.5667 180° South 285 528 5.700 -476 Descending New York TRACON
Fri 11:05:35 40.6667 -74.5167 150° Southeast 282 523 5.100 -300 Descending New York TRACON
Fri 11:06:35 40.5833 -74.4833 163° South 289 536 5.100 -53 Level New York TRACON
Fri 11:07:29 40.5500 -74.4333 131° Southeast 250 463 5.000 -800 Descending New York TRACON
Fri 11:08:35 40.5167 -74.3500 118° Southeast 203 377 3.500 -952 Descending New York TRACON
Fri 11:09:35 40.5167 -74.2833 90° East 176 327 3.000 -417 Descending New York TRACON
Fri 11:10:30 40.5500 -74.2500 37° Northeast 170 315 2.700 -579 Descending New York TRACON
Fri 11:11:29 40.6000 -74.2333 14° North 175 323 1.900 -800 Descending New York TRACON
Fri 11:12:30 40.6333 -74.2000 37° Northeast 131 243 1.100 -750 Descending New York TRACON
Fri 11:13:29 40.6667 -74.1833 21° North 128 237 400 -712 Descending New York TRACON
Fri 11:15:00 40.6833 -74.1667 18° North  Level FlightAware Approximate

Login

Don't have an account? Register now (free) for customized features, flight alerts, and more!